Welcome!

Visit our other weather sites:

Template documentation
and downloads

And another site



There are no active watches, warnings or advisories

Nearby METAR Reports

   
KAVP - Albrightsville, PA
Updated: Apr 6 2020 2:54 pm
Clear  
Clear  
   Wind: West 8.1 mph
Wind: West 8.1 mph
Temperature: 60.8°F
Dew Point: 24.8°F
Humidity: 25%
Barometer: 30.01 inHg
Clouds: Clear
Visibility: 10 mi
Cloud details: Clear
KAVP 061954Z 27007KT 10SM CLR 16/M04 A3001 RMK AO2 SLP161 T01611044
KIWA - Apache Junction, AZ
Updated: Apr 6 2020 2:55 pm
Few Clouds  
Few Clouds  
   Wind: SSW 13.8 mph
Wind: SSW 13.8 mph
Temperature: 78.8°F
Dew Point: 26.6°F
Humidity: 15%
Barometer: 29.93 inHg
Clouds: Few Clouds
Visibility: 10 mi
Cloud details: Few Clouds 6096 m
KIWA 061955Z 21012KT 10SM FEW200 26/M03 A2993
KPKB - Blue Rock, OH
Updated: Apr 6 2020 2:53 pm
Partly Cloudy  
Partly Cloudy  
   Wind: SSE 5.8 mph
Wind: SSE 5.8 mph
Temperature: 66.2°F
Dew Point: 44.6°F
Humidity: 46%
Barometer: 30.03 inHg
Clouds: Partly Cloudy
Visibility: 10 mi
Cloud details: Partly Cloudy 1067 m
KPKB 061953Z 16005KT 10SM SCT035 19/07 A3003 RMK AO2 SLPNO T01940072 $
KHVN - Branford, CT
Updated: Apr 6 2020 2:53 pm
Clear  
Clear  
   Wind: South 9.2 mph
Wind: South 9.2 mph
Temperature: 59°F
Dew Point: 37.4°F
Humidity: 45%
Barometer: 29.93 inHg
Clouds: Clear
Visibility: 10 mi
Cloud details: Clear
KHVN 061953Z 19008KT 10SM CLR 15/03 A2993 RMK AO2 SLP134 T01500033
KPHX - Carefree, AZ
Updated: Apr 6 2020 2:51 pm
Few Clouds  
Few Clouds  
   Wind: Calm
Wind: Calm
Temperature: 77°F
Dew Point: 26.6°F
Humidity: 15%
Barometer: 29.89 inHg
Clouds: Few Clouds
Visibility: 10 mi
Cloud details: Few Clouds 7620 m
KPHX 061951Z 00000KT 10SM FEW250 25/M03 A2989 RMK AO2 SLP109 T02501028
 

Script developed by  Saratoga-weather.org Adapted for the template by  Weerstation Leuven